Time;durP1;ratioP1;P1;durP2;ratioP2;P2;SDS_P1;SDS_P2;PMS_P1;PMS_P2;Temp;Humidity;BMP_temperature;BMP_pressure;BME280_temperature;BME280_humidity;BME280_pressure;Samples;Min_cycle;Max_cycle;Signal;HPM_P1;HPM_P2
2021/01/11 00:00:25;;;;;;;27.60;19.50;;;3.30;82.50;;;;;;4885223;29;20044;-93
2021/01/11 00:02:51;;;;;;;27.30;18.88;;;3.30;82.50;;;;;;4900864;29;20064;-93
2021/01/11 00:05:18;;;;;;;25.15;18.38;;;3.30;82.50;;;;;;4900692;29;20043;-93
2021/01/11 00:07:43;;;;;;;29.90;20.42;;;3.30;82.50;;;;;;4890908;29;20132;-92
2021/01/11 00:10:10;;;;;;;28.63;20.67;;;3.30;82.50;;;;;;4870075;29;20136;-94
2021/01/11 00:12:40;;;;;;;30.98;20.77;;;3.30;82.50;;;;;;4885713;29;20036;-93
2021/01/11 00:15:08;;;;;;;35.53;23.35;;;3.30;82.50;;;;;;4885326;29;20133;-93
2021/01/11 00:17:34;;;;;;;37.17;24.63;;;3.30;82.50;;;;;;4869989;29;20055;-93
2021/01/11 00:20:00;;;;;;;32.88;22.40;;;3.20;82.50;;;;;;4869978;29;20049;-94
2021/01/11 00:22:26;;;;;;;32.50;22.83;;;3.30;82.50;;;;;;4854779;29;20037;-93
2021/01/11 00:24:52;;;;;;;35.28;24.25;;;3.20;82.50;;;;;;4869661;29;20047;-94
2021/01/11 00:27:17;;;;;;;37.70;24.17;;;3.20;82.50;;;;;;4869675;29;20041;-93
2021/01/11 00:29:43;;;;;;;34.00;22.17;;;3.20;82.50;;;;;;4869664;29;20036;-93
2021/01/11 00:32:08;;;;;;;33.15;23.10;;;3.20;82.60;;;;;;4869503;29;20041;-94
2021/01/11 00:34:34;;;;;;;32.45;22.67;;;3.20;82.60;;;;;;4869727;29;20043;-93
2021/01/11 00:37:00;;;;;;;40.03;26.33;;;3.20;82.60;;;;;;4869542;29;20483;-93
2021/01/11 00:39:29;;;;;;;41.53;26.45;;;3.20;82.50;;;;;;4869544;29;20044;-93
2021/01/11 00:41:58;;;;;;;;;;;3.20;82.60;;;;;;4900991;29;20039;-93
2021/01/11 00:44:24;;;;;;;41.75;26.15;;;3.20;82.60;;;;;;4884924;29;19912;-93
2021/01/11 00:46:50;;;;;;;36.63;24.75;;;3.20;82.70;;;;;;4884788;29;20032;-93
2021/01/11 00:49:16;;;;;;;41.55;26.80;;;3.10;82.70;;;;;;4869249;29;20047;-92
2021/01/11 00:51:42;;;;;;;41.33;27.38;;;3.10;82.70;;;;;;4869394;29;20048;-92
2021/01/11 00:54:07;;;;;;;41.33;27.48;;;3.10;82.70;;;;;;4885185;29;20123;-92
2021/01/11 00:56:34;;;;;;;36.53;24.13;;;3.10;82.80;;;;;;4900660;29;20045;-92
2021/01/11 00:59:00;;;;;;;39.58;24.85;;;3.10;82.80;;;;;;4869069;29;20040;-93
2021/01/11 01:01:25;;;;;;;38.60;24.83;;;3.10;82.80;;;;;;4869146;29;20036;-91
2021/01/11 01:03:51;;;;;;;34.28;23.13;;;3.10;82.80;;;;;;4869002;29;20048;-93
2021/01/11 01:06:17;;;;;;;34.88;23.80;;;3.10;82.80;;;;;;4884536;29;20047;-92
2021/01/11 01:08:43;;;;;;;34.25;24.08;;;3.10;82.80;;;;;;4882734;23;20037;-85
2021/01/11 01:11:10;;;;;;;37.45;24.67;;;3.10;82.90;;;;;;4917304;29;20039;-84
2021/01/11 01:13:36;;;;;;;35.47;23.50;;;3.10;82.80;;;;;;4900582;29;20498;-84
2021/01/11 01:16:02;;;;;;;37.00;24.13;;;3.10;82.80;;;;;;4900290;29;20056;-85
2021/01/11 01:18:28;;;;;;;39.38;25.55;;;3.10;82.80;;;;;;4900605;29;20453;-85
2021/01/11 01:20:53;;;;;;;37.20;24.75;;;3.10;82.80;;;;;;4884905;29;20072;-84
2021/01/11 01:23:19;;;;;;;39.83;24.75;;;3.10;82.80;;;;;;4917156;29;20455;-84
2021/01/11 01:25:44;;;;;;;40.60;26.25;;;3.10;82.80;;;;;;4900490;29;20044;-85
2021/01/11 01:28:10;;;;;;;37.95;24.63;;;3.10;82.80;;;;;;4915864;29;20040;-85
2021/01/11 01:30:36;;;;;;;41.28;26.67;;;3.10;82.80;;;;;;4859274;29;20052;-84
2021/01/11 01:33:01;;;;;;;37.83;24.15;;;3.10;82.80;;;;;;4865673;29;20483;-85
2021/01/11 01:35:29;;;;;;;40.72;25.45;;;3.10;82.80;;;;;;4866089;29;20040;-85
2021/01/11 01:37:55;;;;;;;47.17;29.92;;;3.10;82.80;;;;;;4866331;29;20075;-85
2021/01/11 01:40:21;;;;;;;44.00;27.80;;;3.10;82.80;;;;;;4898476;29;20080;-89
2021/01/11 01:42:46;;;;;;;43.75;28.40;;;3.10;82.90;;;;;;4866898;29;20041;-88
2021/01/11 01:45:15;;;;;;;42.45;28.25;;;3.10;82.80;;;;;;4899718;29;20040;-89
2021/01/11 01:47:40;;;;;;;42.75;27.85;;;3.10;82.90;;;;;;4890676;29;20490;-89
2021/01/11 01:50:07;;;;;;;45.40;26.40;;;3.10;82.90;;;;;;4866160;29;20051;-88
2021/01/11 01:52:35;;;;;;;45.97;27.88;;;3.10;82.80;;;;;;4897686;29;20037;-88
2021/01/11 01:55:02;;;;;;;41.60;26.83;;;3.10;82.80;;;;;;4881730;29;20044;-89
2021/01/11 01:57:27;;;;;;;43.40;28.50;;;3.10;82.80;;;;;;4866367;29;20053;-89
2021/01/11 01:59:53;;;;;;;42.30;27.40;;;3.10;82.80;;;;;;4866721;29;20407;-89
2021/01/11 02:02:19;;;;;;;43.60;29.17;;;3.10;82.90;;;;;;4881863;29;20398;-88
2021/01/11 02:04:45;;;;;;;41.67;26.05;;;3.10;82.80;;;;;;4866364;29;20064;-89
2021/01/11 02:07:31;;;;;;;38.63;24.05;;;3.10;82.90;;;;;;4866100;29;20055;-88
2021/01/11 02:10:24;;;;;;;37.03;23.45;;;3.10;82.80;;;;;;4896774;29;20056;-88
2021/01/11 02:13:04;;;;;;;34.50;24.05;;;3.10;82.80;;;;;;4898505;29;20069;-89
2021/01/11 02:15:54;;;;;;;41.88;24.40;;;3.10;82.70;;;;;;4882744;29;20055;-88
2021/01/11 02:18:30;;;;;;;36.47;23.48;;;3.10;82.80;;;;;;4896768;29;20047;-89
2021/01/11 02:21:24;;;;;;;37.03;21.80;;;3.10;82.80;;;;;;4898501;29;20036;-88
2021/01/11 02:24:14;;;;;;;33.72;21.25;;;3.10;82.80;;;;;;4881648;29;20092;-89
2021/01/11 02:26:52;;;;;;;36.97;21.73;;;3.10;82.80;;;;;;4881402;29;20040;-85
2021/01/11 02:29:29;;;;;;;35.97;21.80;;;3.10;82.80;;;;;;4880257;29;20478;-84
2021/01/11 02:31:57;;;;;;;39.40;22.73;;;3.10;82.80;;;;;;4896088;29;20399;-85
2021/01/11 02:34:24;;;;;;;36.63;22.65;;;3.10;82.90;;;;;;4898051;29;20036;-84
2021/01/11 02:36:51;;;;;;;38.75;22.77;;;3.10;83.00;;;;;;4897229;29;20091;-85
2021/01/11 02:39:17;;;;;;;37.67;22.75;;;3.10;83.10;;;;;;4897029;29;20051;-84
2021/01/11 02:41:43;;;;;;;39.42;22.27;;;3.00;83.10;;;;;;4865005;29;20398;-85
2021/01/11 02:44:09;;;;;;;36.03;21.25;;;3.10;83.10;;;;;;4879923;29;20041;-84
2021/01/11 02:46:35;;;;;;;34.42;21.65;;;3.00;83.10;;;;;;4895910;29;20415;-85
2021/01/11 02:49:09;;;;;;;38.63;21.77;;;3.10;83.20;;;;;;4896966;29;20037;-84
2021/01/11 02:51:43;;;;;;;43.50;21.65;;;3.00;83.30;;;;;;4880129;29;20037;-85
2021/01/11 02:54:25;;;;;;;36.03;21.08;;;3.10;83.50;;;;;;4896621;29;20025;-84
2021/01/11 02:57:03;;;;;;;30.35;17.25;;;3.10;83.50;;;;;;4896706;29;20051;-84
2021/01/11 02:59:32;;;;;;;31.23;16.92;;;3.10;83.50;;;;;;4880061;29;20036;-85
2021/01/11 03:02:08;;;;;;;27.02;15.45;;;3.00;83.30;;;;;;4895663;29;20040;-85
2021/01/11 03:04:34;;;;;;;34.47;18.45;;;3.10;83.40;;;;;;4879925;29;20036;-84
2021/01/11 03:07:03;;;;;;;31.08;16.27;;;3.10;83.30;;;;;;4897672;29;20080;-84
2021/01/11 03:09:30;;;;;;;28.38;16.25;;;3.10;83.30;;;;;;4896487;29;20045;-84
2021/01/11 03:11:57;;;;;;;32.15;17.70;;;3.10;83.30;;;;;;4864356;29;20045;-85
2021/01/11 03:14:25;;;;;;;44.35;20.85;;;3.10;83.20;;;;;;4879620;29;20041;-84
2021/01/11 03:16:51;;;;;;;40.63;20.48;;;3.10;83.30;;;;;;4896704;29;20100;-84
2021/01/11 03:19:19;;;;;;;39.88;19.95;;;3.10;83.40;;;;;;4896210;29;20033;-84
2021/01/11 03:21:45;;;;;;;51.20;24.90;;;3.10;83.40;;;;;;4880002;29;20032;-85
2021/01/11 03:24:14;;;;;;;48.25;24.92;;;3.10;83.60;;;;;;4879488;29;20456;-85
2021/01/11 03:26:39;;;;;;;43.78;22.92;;;3.10;83.70;;;;;;4879601;29;20131;-84
2021/01/11 03:29:05;;;;;;;41.58;23.15;;;3.10;83.60;;;;;;4863928;29;20468;-84
2021/01/11 03:31:31;;;;;;;43.33;23.50;;;3.10;83.60;;;;;;4863761;29;20155;-84
2021/01/11 03:33:56;;;;;;;45.42;24.48;;;3.10;83.60;;;;;;4879794;29;20036;-84
2021/01/11 03:36:22;;;;;;;46.38;22.85;;;3.10;83.50;;;;;;4863751;29;20040;-84
2021/01/11 03:38:48;;;;;;;42.22;23.08;;;3.10;83.50;;;;;;4895145;29;20074;-84
2021/01/11 03:41:14;;;;;;;45.33;24.27;;;3.10;83.50;;;;;;4879316;29;20074;-84
2021/01/11 03:43:41;;;;;;;45.88;25.92;;;3.10;83.50;;;;;;4879817;29;20045;-84
2021/01/11 03:46:13;;;;;;;49.35;25.75;;;3.10;84.10;;;;;;4879049;29;20052;-84
2021/01/11 03:48:39;;;;;;;47.60;26.05;;;3.20;84.20;;;;;;4879535;29;20072;-84
2021/01/11 03:51:05;;;;;;;45.03;24.83;;;3.20;83.60;;;;;;4896281;29;20119;-84
2021/01/11 03:53:31;;;;;;;49.28;27.52;;;3.10;83.50;;;;;;4895258;29;20347;-84
2021/01/11 03:55:57;;;;;;;48.42;27.52;;;3.20;83.60;;;;;;4896229;29;20063;-84
2021/01/11 03:58:23;;;;;;;45.83;26.23;;;3.20;83.60;;;;;;4896074;29;20040;-89
2021/01/11 04:00:49;;;;;;;42.60;23.65;;;3.20;83.60;;;;;;4897008;29;20047;-89
2021/01/11 04:03:16;;;;;;;44.95;25.17;;;3.20;83.50;;;;;;4864704;29;20052;-89
2021/01/11 04:05:46;;;;;;;43.00;25.65;;;3.20;83.50;;;;;;4895696;29;20080;-89
2021/01/11 04:08:12;;;;;;;40.72;23.05;;;3.20;83.50;;;;;;4864538;29;20036;-89
2021/01/11 04:10:38;;;;;;;40.20;23.33;;;3.20;83.50;;;;;;4879901;29;20061;-89
2021/01/11 04:13:04;;;;;;;40.67;23.42;;;3.20;83.50;;;;;;4871666;29;20439;-84
2021/01/11 04:15:29;;;;;;;42.03;23.90;;;3.20;83.40;;;;;;4894410;29;20037;-83
2021/01/11 04:17:55;;;;;;;39.63;23.63;;;3.20;83.40;;;;;;4879338;29;20064;-84
2021/01/11 04:20:24;;;;;;;37.00;22.45;;;3.20;83.40;;;;;;4881808;29;20044;-84
2021/01/11 04:22:49;;;;;;;33.95;21.50;;;3.20;83.40;;;;;;4867629;29;20111;-84
2021/01/11 04:25:16;;;;;;;36.15;22.65;;;3.20;83.40;;;;;;4914451;29;20040;-84
2021/01/11 04:27:41;;;;;;;37.63;23.15;;;3.30;83.40;;;;;;4897991;29;20043;-84
2021/01/11 04:30:09;;;;;;;38.47;22.17;;;3.20;83.30;;;;;;4897868;29;20131;-84
2021/01/11 04:32:35;;;;;;;33.22;21.48;;;3.30;83.40;;;;;;4914768;29;20056;-84
2021/01/11 04:35:06;;;;;;;36.13;22.42;;;3.30;84.00;;;;;;4913508;29;20047;-84
2021/01/11 04:37:31;;;;;;;34.75;22.17;;;3.30;83.40;;;;;;4912527;29;20494;-84
2021/01/11 04:39:57;;;;;;;38.65;22.38;;;3.30;83.30;;;;;;4882087;29;20100;-84
2021/01/11 04:42:32;;;;;;;37.03;23.73;;;3.30;83.40;;;;;;4882107;29;20450;-84
2021/01/11 04:44:59;;;;;;;40.08;25.88;;;3.30;83.50;;;;;;4918101;29;20391;-84
2021/01/11 04:47:25;;;;;;;33.50;23.50;;;3.20;83.50;;;;;;4900896;29;20071;-89
2021/01/11 04:49:53;;;;;;;36.53;23.23;;;3.30;83.50;;;;;;4901735;29;20068;-88
2021/01/11 04:52:19;;;;;;;36.47;23.55;;;3.30;83.60;;;;;;4901708;29;20577;-89
2021/01/11 04:54:49;;;;;;;32.95;21.92;;;3.30;83.50;;;;;;4901963;29;20048;-88
2021/01/11 04:57:16;;;;;;;35.10;22.83;;;3.30;83.60;;;;;;4885903;29;20079;-89
2021/01/11 04:59:49;;;;;;;32.70;22.58;;;3.30;84.10;;;;;;4901686;29;20032;-89
2021/01/11 05:02:21;;;;;;;33.45;21.70;;;3.30;83.50;;;;;;4887020;29;20044;-89
2021/01/11 05:04:47;;;;;;;32.25;20.98;;;3.30;83.50;;;;;;4882955;29;20399;-89
2021/01/11 05:07:16;;;;;;;33.70;20.90;;;3.30;83.50;;;;;;4902566;29;20044;-89
2021/01/11 05:09:46;;;;;;;33.83;21.77;;;3.30;83.50;;;;;;4882544;29;20053;-89
2021/01/11 05:12:14;;;;;;;33.15;21.33;;;3.30;83.40;;;;;;4882319;29;20509;-89
2021/01/11 05:14:42;;;;;;;33.78;22.73;;;3.30;83.40;;;;;;4871727;29;20176;-89
2021/01/11 05:17:13;;;;;;;42.45;26.02;;;3.30;83.40;;;;;;4862658;29;20040;-89
2021/01/11 05:19:38;;;;;;;34.67;22.38;;;3.30;83.40;;;;;;4875756;29;20044;-88
2021/01/11 05:22:09;;;;;;;34.65;22.88;;;3.30;83.50;;;;;;4898331;29;20037;-89
2021/01/11 05:24:43;;;;;;;39.30;24.35;;;3.30;83.40;;;;;;4890149;29;20029;-89
2021/01/11 05:27:10;;;;;;;41.63;25.92;;;3.30;83.40;;;;;;4899243;29;20042;-89
2021/01/11 05:29:38;;;;;;;41.05;26.05;;;3.30;83.50;;;;;;4868668;29;20052;-88
2021/01/11 05:32:08;;;;;;;41.17;25.93;;;3.30;83.60;;;;;;4869837;29;20048;-88
2021/01/11 05:34:53;;;;;;;41.80;26.25;;;3.30;83.50;;;;;;4897076;29;20036;-88
2021/01/11 05:37:31;;;;;;;43.83;26.25;;;3.30;83.60;;;;;;4900681;29;20040;-89
2021/01/11 05:40:13;;;;;;;42.38;26.90;;;3.30;83.60;;;;;;4900864;29;20032;-88
2021/01/11 05:42:40;;;;;;;45.67;27.92;;;3.30;83.60;;;;;;4897470;29;20514;-89
2021/01/11 05:45:10;;;;;;;43.95;26.60;;;3.30;83.70;;;;;;4869444;29;20491;-89
2021/01/11 05:48:03;;;;;;;39.15;25.42;;;3.30;84.30;;;;;;4882044;29;20092;-89
2021/01/11 05:50:40;;;;;;;39.60;23.98;;;3.30;83.80;;;;;;4898542;29;20127;-89
2021/01/11 05:53:19;;;;;;;39.85;26.08;;;3.30;83.80;;;;;;4898560;29;20084;-88
2021/01/11 05:55:49;;;;;;;46.35;28.45;;;3.30;83.80;;;;;;4899878;29;20116;-89
2021/01/11 05:58:15;;;;;;;45.92;27.65;;;3.30;83.80;;;;;;4882961;29;20029;-88
2021/01/11 06:00:42;;;;;;;42.65;27.00;;;3.30;83.90;;;;;;4879767;29;20051;-89
2021/01/11 06:03:09;;;;;;;42.08;25.60;;;3.30;83.90;;;;;;4867104;29;20056;-88
2021/01/11 06:05:35;;;;;;;41.10;25.85;;;3.30;83.90;;;;;;4881446;29;20474;-88
2021/01/11 06:08:06;;;;;;;43.25;27.75;;;3.30;83.90;;;;;;4881951;29;20060;-89
2021/01/11 06:10:32;;;;;;;42.55;24.90;;;3.30;83.80;;;;;;4865659;29;20373;-89
2021/01/11 06:12:58;;;;;;;40.35;25.80;;;3.30;83.90;;;;;;4880828;29;20075;-84
2021/01/11 06:15:25;;;;;;;45.40;26.98;;;3.30;83.90;;;;;;4867018;29;20076;-82
2021/01/11 06:17:53;;;;;;;40.97;26.67;;;3.30;83.80;;;;;;4892190;29;20046;-84
2021/01/11 06:20:22;;;;;;;39.33;25.90;;;3.30;83.80;;;;;;4880619;29;20035;-83
2021/01/11 06:22:51;;;;;;;42.13;26.13;;;3.30;83.90;;;;;;4899656;29;20036;-82
2021/01/11 06:25:22;;;;;;;44.47;28.80;;;3.40;83.90;;;;;;4909508;29;20099;-82
2021/01/11 06:28:01;;;;;;;43.13;27.65;;;3.30;83.80;;;;;;4917200;29;20047;-83
2021/01/11 06:30:33;;;;;;;46.70;30.20;;;3.40;84.00;;;;;;4885266;29;20045;-83
2021/01/11 06:33:11;;;;;;;42.85;28.42;;;3.30;83.90;;;;;;4892499;29;20037;-82
2021/01/11 06:35:46;;;;;;;44.35;28.88;;;3.40;84.00;;;;;;4880392;29;20044;-83
2021/01/11 06:38:20;;;;;;;42.72;26.67;;;3.30;84.10;;;;;;4896807;29;20347;-82
2021/01/11 06:40:52;;;;;;;42.88;27.38;;;3.30;84.10;;;;;;4880232;29;20087;-82
2021/01/11 06:43:19;;;;;;;37.63;24.60;;;3.30;84.10;;;;;;4879489;29;20419;-83
2021/01/11 06:45:47;;;;;;;35.83;24.88;;;3.40;84.10;;;;;;4878965;29;20143;-83
2021/01/11 06:48:15;;;;;;;42.78;28.67;;;3.30;83.90;;;;;;4880427;29;20040;-82
2021/01/11 06:50:42;;;;;;;44.67;27.70;;;3.40;84.00;;;;;;4879035;29;20058;-83
2021/01/11 06:53:08;;;;;;;43.53;29.20;;;3.40;84.00;;;;;;4910475;29;20276;-90
2021/01/11 06:55:34;;;;;;;42.97;28.73;;;3.40;84.70;;;;;;4869733;29;20124;-89
2021/01/11 06:58:01;;;;;;;42.33;26.42;;;3.40;84.10;;;;;;4885586;29;20459;-88
2021/01/11 07:00:38;;;;;;;45.47;29.23;;;3.40;84.10;;;;;;4897904;29;20136;-88
2021/01/11 07:03:06;;;;;;;44.13;28.30;;;3.40;84.20;;;;;;4900356;29;20036;-88
2021/01/11 07:05:37;;;;;;;45.35;28.23;;;3.40;84.20;;;;;;4899246;29;20040;-87
2021/01/11 07:08:16;;;;;;;39.92;25.88;;;3.40;84.30;;;;;;4897404;29;20493;-87
2021/01/11 07:10:42;;;;;;;42.35;26.75;;;3.40;84.80;;;;;;4895909;29;20104;-87
2021/01/11 07:13:17;;;;;;;42.40;27.95;;;3.40;84.20;;;;;;4886072;29;20039;-88
2021/01/11 07:16:06;;;;;;;38.22;25.17;;;3.40;84.20;;;;;;4899106;29;20040;-87
2021/01/11 07:18:37;;;;;;;46.22;28.35;;;3.40;84.10;;;;;;4885994;29;20478;-87
2021/01/11 07:21:14;;;;;;;36.70;25.15;;;3.40;84.20;;;;;;4916039;29;20486;-87
2021/01/11 07:23:40;;;;;;;35.83;24.33;;;3.40;84.20;;;;;;4914607;23;20130;-88
2021/01/11 07:26:11;;;;;;;40.92;26.17;;;3.40;84.20;;;;;;4913036;29;20131;-89
2021/01/11 07:28:37;;;;;;;38.38;25.23;;;3.40;84.20;;;;;;4898552;29;20398;-88
2021/01/11 07:31:03;;;;;;;36.67;23.70;;;3.40;84.20;;;;;;4899004;29;20032;-88
2021/01/11 07:33:28;;;;;;;36.20;24.98;;;3.40;84.20;;;;;;4883059;29;20044;-88
2021/01/11 07:35:54;;;;;;;41.28;26.33;;;3.40;84.20;;;;;;4855397;29;20052;-88
2021/01/11 07:38:19;;;;;;;42.60;27.50;;;3.40;84.20;;;;;;4880815;29;20069;-88
2021/01/11 07:40:45;;;;;;;38.40;25.77;;;3.40;84.30;;;;;;4864865;29;20132;-89
2021/01/11 07:43:11;;;;;;;39.13;24.95;;;3.40;84.20;;;;;;4864948;29;20062;-89
2021/01/11 07:45:36;;;;;;;34.60;22.50;;;3.50;84.30;;;;;;4864348;29;20529;-88
2021/01/11 07:48:02;;;;;;;37.53;25.08;;;3.50;84.30;;;;;;4873561;29;20045;-89
2021/01/11 07:50:31;;;;;;;38.47;25.80;;;3.50;84.20;;;;;;4888235;29;20095;-88
2021/01/11 07:53:00;;;;;;;40.20;25.33;;;3.50;84.20;;;;;;4886545;29;20065;-87
2021/01/11 07:55:37;;;;;;;43.22;27.02;;;3.50;84.30;;;;;;4867039;29;20047;-90
2021/01/11 07:58:03;;;;;;;39.72;26.20;;;3.50;84.20;;;;;;4886112;29;20474;-90
2021/01/11 08:00:36;;;;;;;47.05;28.33;;;3.40;84.20;;;;;;4917086;29;20036;-91
2021/01/11 08:03:07;;;;;;;43.60;27.38;;;3.50;84.30;;;;;;4900613;29;20036;-91
2021/01/11 08:06:07;;;;;;;44.67;27.70;;;3.50;84.30;;;;;;4885059;29;20047;-92
2021/01/11 08:09:42;;;;;;;48.85;29.55;;;3.50;84.30;;;;;;4916650;29;20041;-90
2021/01/11 08:12:31;;;;;;;42.03;27.27;;;3.50;84.40;;;;;;4916188;29;20036;-91
2021/01/11 08:15:28;;;;;;;;;;;;;;;;;;;;;
2021/01/11 08:17:54;;;;;;;43.03;27.60;;;3.40;84.40;;;;;;4918429;29;20032;-88
2021/01/11 08:24:02;;;;;;;39.28;25.10;;;3.50;84.50;;;;;;4866907;29;20115;-91
2021/01/11 08:27:11;;;;;;;45.92;28.27;;;3.50;84.50;;;;;;4901436;29;20510;-90
2021/01/11 08:30:15;;;;;;;43.25;26.77;;;3.40;84.50;;;;;;4874702;29;20043;-91
2021/01/11 08:33:27;;;;;;;38.97;25.23;;;3.40;84.50;;;;;;4917089;29;20478;-94
2021/01/11 08:46:16;;;;;;;44.83;27.65;;;3.50;84.60;;;;;;4919502;29;20030;-91
2021/01/11 08:49:06;;;;;;;44.15;27.27;;;3.50;84.60;;;;;;4886502;29;20040;-89
2021/01/11 08:54:55;;;;;;;45.22;27.58;;;3.50;84.70;;;;;;4912867;29;20117;-88
2021/01/11 08:57:26;;;;;;;49.28;30.65;;;3.40;84.70;;;;;;4883286;29;20033;-89
2021/01/11 08:59:53;;;;;;;51.78;32.35;;;3.50;84.80;;;;;;4900629;29;20434;-89
2021/01/11 09:02:28;;;;;;;52.90;31.52;;;3.40;84.90;;;;;;4901079;29;20032;-89
2021/01/11 09:05:12;;;;;;;52.53;31.52;;;3.40;84.90;;;;;;4917067;29;20131;-88
2021/01/11 09:07:41;;;;;;;47.00;29.83;;;3.50;85.00;;;;;;4888179;29;20040;-89
2021/01/11 09:14:24;;;;;;;48.22;28.92;;;3.40;84.90;;;;;;4882623;29;20074;-91
2021/01/11 09:16:56;;;;;;;48.50;29.23;;;3.50;84.90;;;;;;4866337;29;20053;-90
2021/01/11 09:19:21;;;;;;;48.63;29.90;;;3.50;84.90;;;;;;4878087;29;20044;-91
2021/01/11 09:22:28;;;;;;;50.42;29.30;;;3.50;85.00;;;;;;4892896;29;20047;-92
2021/01/11 09:25:34;;;;;;;49.83;30.02;;;3.50;85.00;;;;;;4884165;29;20117;-90
2021/01/11 09:28:02;;;;;;;53.83;31.42;;;3.50;85.20;;;;;;4900436;29;20036;-89
2021/01/11 09:30:29;;;;;;;50.70;29.80;;;3.50;85.30;;;;;;4897593;29;20410;-87
2021/01/11 09:32:58;;;;;;;50.28;30.48;;;3.50;85.30;;;;;;4897122;29;20066;-89
2021/01/11 09:35:27;;;;;;;47.30;28.70;;;3.50;85.30;;;;;;4901806;29;20520;-88
2021/01/11 09:37:59;;;;;;;46.70;28.98;;;3.50;85.20;;;;;;4884529;29;20104;-88
2021/01/11 09:40:52;;;;;;;;;;;;;;;;;;;;;
2021/01/11 09:43:25;;;;;;;43.25;25.92;;;3.50;85.20;;;;;;4919588;29;20058;-91
2021/01/11 09:50:19;;;;;;;42.05;25.88;;;3.60;85.20;;;;;;4882134;29;20028;-92
2021/01/11 09:53:36;;;;;;;;;;;;;;;;;;;;;
2021/01/11 09:56:09;;;;;;;44.33;26.05;;;3.60;85.10;;;;;;4916549;29;20392;-93
2021/01/11 09:58:35;;;;;;;43.67;27.17;;;3.60;85.10;;;;;;4902334;29;20048;-87
2021/01/11 10:01:00;;;;;;;45.58;26.70;;;3.60;85.10;;;;;;4900617;29;20044;-90
2021/01/11 10:03:26;;;;;;;43.10;26.15;;;3.60;85.10;;;;;;4901830;29;20123;-91
2021/01/11 10:05:56;;;;;;;43.67;25.27;;;3.60;85.10;;;;;;4902203;29;20483;-91
2021/01/11 10:08:22;;;;;;;41.22;26.02;;;3.60;85.10;;;;;;4902227;29;20379;-91
2021/01/11 10:10:47;;;;;;;41.05;25.50;;;3.60;85.10;;;;;;4902007;29;20088;-91
2021/01/11 10:13:15;;;;;;;40.80;24.15;;;3.60;85.00;;;;;;4901562;29;20127;-92
2021/01/11 10:15:41;;;;;;;43.20;25.55;;;3.70;85.10;;;;;;4902066;29;20109;-91
2021/01/11 10:18:06;;;;;;;39.42;24.25;;;3.70;85.00;;;;;;4903106;29;20122;-88
2021/01/11 10:20:32;;;;;;;35.72;22.30;;;3.70;85.00;;;;;;4885837;29;20071;-89
2021/01/11 10:23:00;;;;;;;36.83;23.83;;;3.70;84.90;;;;;;4883705;29;20549;-94
2021/01/11 10:25:29;;;;;;;40.22;24.83;;;3.70;84.90;;;;;;4884261;29;20049;-91
2021/01/11 10:27:55;;;;;;;35.67;22.15;;;3.80;84.90;;;;;;4855524;29;20043;-93
2021/01/11 10:30:23;;;;;;;36.38;22.33;;;3.70;84.80;;;;;;4883077;29;20157;-90
2021/01/11 10:32:49;;;;;;;35.55;20.30;;;3.70;84.80;;;;;;4900943;29;20226;-90
2021/01/11 10:35:15;;;;;;;37.80;22.92;;;3.80;84.90;;;;;;4901783;29;20040;-90
2021/01/11 10:37:42;;;;;;;36.35;22.45;;;3.80;84.80;;;;;;4885205;29;20477;-91
2021/01/11 10:40:09;;;;;;;32.95;20.42;;;3.80;84.80;;;;;;4917052;29;20131;-91
2021/01/11 10:42:34;;;;;;;30.55;20.05;;;3.80;84.70;;;;;;4898798;29;20414;-91
2021/01/11 10:45:00;;;;;;;33.65;21.52;;;3.80;84.70;;;;;;4883754;29;20139;-91
2021/01/11 10:47:26;;;;;;;34.97;22.10;;;3.80;84.70;;;;;;4873663;29;20039;-91
2021/01/11 10:49:51;;;;;;;36.97;22.02;;;3.80;84.70;;;;;;4901935;29;20032;-90
2021/01/11 10:52:17;;;;;;;33.38;21.58;;;3.90;84.90;;;;;;4902083;29;20036;-91
2021/01/11 10:54:43;;;;;;;32.72;20.67;;;3.90;84.90;;;;;;4883155;29;20099;-91
2021/01/11 10:57:08;;;;;;;32.05;19.35;;;3.90;84.80;;;;;;4877389;29;20063;-90
2021/01/11 10:59:34;;;;;;;31.13;19.40;;;3.90;84.80;;;;;;4881730;29;20044;-91
2021/01/11 11:02:00;;;;;;;32.53;21.35;;;3.90;84.70;;;;;;4882632;29;20221;-91
2021/01/11 11:04:26;;;;;;;30.67;19.55;;;3.90;84.90;;;;;;4879975;29;20040;-91
2021/01/11 11:06:57;;;;;;;36.00;22.75;;;3.90;84.80;;;;;;4887413;29;20052;-92
2021/01/11 11:09:22;;;;;;;31.17;20.48;;;3.90;84.90;;;;;;4885299;29;20024;-92
2021/01/11 11:11:52;;;;;;;31.17;18.95;;;4.00;85.00;;;;;;4884385;29;20486;-92
2021/01/11 11:14:18;;;;;;;31.02;19.00;;;4.00;84.90;;;;;;4883900;29;20076;-92
2021/01/11 11:16:43;;;;;;;31.00;19.25;;;4.00;84.80;;;;;;4865177;29;20099;-91
2021/01/11 11:19:09;;;;;;;28.05;18.25;;;4.00;84.80;;;;;;4898067;29;20494;-92
2021/01/11 11:21:35;;;;;;;30.63;20.25;;;4.00;84.80;;;;;;4868599;29;20491;-92
2021/01/11 11:24:00;;;;;;;32.33;20.67;;;4.10;84.80;;;;;;4883708;29;20048;-92
2021/01/11 11:26:26;;;;;;;28.60;18.63;;;4.00;84.80;;;;;;4864646;29;20510;-92
2021/01/11 11:28:52;;;;;;;31.55;19.63;;;4.10;84.80;;;;;;4865593;29;20089;-91
2021/01/11 11:31:21;;;;;;;29.67;19.40;;;4.10;85.40;;;;;;4850650;29;20487;-91
2021/01/11 11:33:46;;;;;;;28.90;18.58;;;4.10;84.90;;;;;;4860364;29;20045;-92
2021/01/11 11:36:12;;;;;;;35.75;20.42;;;4.10;84.90;;;;;;4881116;29;20100;-92
2021/01/11 11:38:38;;;;;;;30.48;19.10;;;4.10;84.90;;;;;;4880602;29;20135;-92
2021/01/11 11:41:03;;;;;;;31.20;19.20;;;4.20;85.00;;;;;;4881047;29;20044;-93
2021/01/11 11:43:29;;;;;;;30.60;18.90;;;4.20;84.90;;;;;;4854960;29;20040;-92
2021/01/11 11:45:55;;;;;;;27.02;17.88;;;4.20;84.90;;;;;;4884184;29;20139;-92
2021/01/11 11:48:21;;;;;;;29.83;18.20;;;4.20;84.80;;;;;;4868871;29;20052;-92
2021/01/11 11:50:46;;;;;;;29.70;18.05;;;4.20;84.90;;;;;;4899649;29;20067;-92
2021/01/11 11:53:12;;;;;;;27.50;17.88;;;4.20;85.50;;;;;;4887178;29;20127;-92
2021/01/11 11:55:38;;;;;;;29.73;18.75;;;4.30;84.90;;;;;;4884010;29;20140;-92
2021/01/11 11:58:04;;;;;;;29.25;18.25;;;4.30;84.90;;;;;;4902444;29;20391;-94
2021/01/11 12:00:30;;;;;;;26.67;16.85;;;4.30;84.90;;;;;;4902165;29;20099;-92
2021/01/11 12:02:55;;;;;;;27.83;17.63;;;4.30;84.80;;;;;;4887248;29;20045;-92
2021/01/11 12:05:21;;;;;;;27.35;17.63;;;4.30;84.80;;;;;;4903259;29;20390;-93
2021/01/11 12:07:53;;;;;;;26.27;17.55;;;4.30;84.70;;;;;;4888066;29;20036;-94
2021/01/11 12:10:19;;;;;;;28.83;18.20;;;4.40;84.80;;;;;;4903866;29;20037;-93
2021/01/11 12:12:47;;;;;;;30.48;16.77;;;4.40;84.80;;;;;;4887668;29;20076;-93
2021/01/11 12:15:14;;;;;;;25.52;16.15;;;4.40;84.80;;;;;;4887351;29;20051;-90
2021/01/11 12:17:41;;;;;;;27.90;18.42;;;4.40;84.80;;;;;;4902638;29;20036;-91
2021/01/11 12:20:08;;;;;;;27.02;17.52;;;4.40;84.70;;;;;;4903496;29;20064;-93
2021/01/11 12:22:36;;;;;;;27.52;17.02;;;4.50;84.70;;;;;;4894390;29;20048;-91
2021/01/11 12:25:03;;;;;;;27.27;17.95;;;4.50;84.80;;;;;;4907881;29;20383;-91
2021/01/11 12:27:32;;;;;;;26.33;16.73;;;4.50;84.80;;;;;;4908700;29;20027;-93
2021/01/11 12:30:01;;;;;;;27.73;17.52;;;4.50;84.80;;;;;;4903296;29;20036;-93
2021/01/11 12:32:29;;;;;;;25.80;16.98;;;4.50;84.80;;;;;;4903509;29;20055;-90
2021/01/11 12:34:55;;;;;;;28.25;17.25;;;4.60;84.80;;;;;;4888532;29;20036;-93
2021/01/11 12:37:24;;;;;;;27.15;18.25;;;4.50;84.80;;;;;;4888670;29;20230;-95
2021/01/11 12:39:55;;;;;;;25.17;17.05;;;4.60;85.00;;;;;;4909799;29;20058;-95
2021/01/11 12:42:20;;;;;;;27.60;18.20;;;4.60;84.90;;;;;;4925401;29;20036;-93
2021/01/11 12:44:46;;;;;;;25.95;16.27;;;4.60;85.00;;;;;;4922028;29;20028;-94
2021/01/11 12:47:13;;;;;;;25.95;16.98;;;4.60;85.00;;;;;;4923608;29;20043;-92
2021/01/11 12:49:41;;;;;;;25.67;17.58;;;4.70;85.00;;;;;;4925245;29;20035;-95
2021/01/11 12:59:40;;;;;;;25.55;17.00;;;4.70;85.20;;;;;;4855051;29;20053;-95
2021/01/11 13:05:24;;;;;;;29.95;18.83;;;4.80;85.20;;;;;;4832818;29;20581;-93
2021/01/11 13:07:59;;;;;;;23.70;15.68;;;4.80;85.10;;;;;;4858619;29;20045;-94
2021/01/11 13:10:25;;;;;;;26.33;16.52;;;4.90;85.10;;;;;;4875189;29;20044;-93
2021/01/11 13:13:11;;;;;;;27.05;17.95;;;4.90;85.00;;;;;;4902147;29;20033;-95
2021/01/11 13:19:39;;;;;;;24.90;15.95;;;4.90;85.10;;;;;;4876163;29;20045;-92
2021/01/11 13:22:05;;;;;;;26.50;17.08;;;4.90;85.10;;;;;;4874954;29;20096;-91
2021/01/11 13:24:31;;;;;;;26.02;16.90;;;4.90;85.20;;;;;;4931246;23;20050;-84
2021/01/11 13:26:56;;;;;;;26.20;17.48;;;5.00;85.30;;;;;;4901594;29;20048;-85
2021/01/11 13:29:22;;;;;;;24.65;15.85;;;5.00;85.20;;;;;;4886047;29;20406;-85
2021/01/11 13:31:49;;;;;;;22.63;16.08;;;5.00;85.10;;;;;;4886957;29;20036;-85
2021/01/11 13:34:16;;;;;;;23.92;15.07;;;5.10;85.10;;;;;;4871859;29;20060;-84